Mont-de-Marsan (BA 118) Air Base

Airport
ICAO code: 
LFBM
Summary
ICAO Region: 
EUR
Territory: 
Location: 
, Aquitaine
Serving: 
Mont-de-marsan
Elevation: 
203 ft
Coordinates: 
Aerial View: 
43° 54' 42.001" N, 0° 30' 27" W
Metar
Observation
LFBM 241730Z AUTO 00000KT CAVOK 06/01 Q1029 BECMG 2000 BR
Station
Mont-De-Marsan
Date/Time
2022-01-24 17:30:00
Wind direction
Wind speed
00 kts
Lowest cloud amount
clouds and visibility OK
Temperature
6°C
Dew point
1°C
Humidity
70%
QNH
1029 hPa
Weather condition
n/a

Runways

Designator Length Width Surface Rops
9/27 3603 45 PEM No/No
Airport map: 
Aerial View: 

SKYbrary Partners:

Safety knowledge contributed by: